createdAt,value
2023-03-17T00:00:00.297Z,11.80
2023-03-17T00:02:29.641Z,11.80
2023-03-17T00:04:58.625Z,11.80
2023-03-17T00:07:27.680Z,11.80
2023-03-17T00:09:58.542Z,11.80
2023-03-17T00:12:27.656Z,11.80
2023-03-17T00:14:56.500Z,11.80
2023-03-17T00:17:25.411Z,11.80
2023-03-17T00:19:54.810Z,11.80
2023-03-17T00:22:23.649Z,11.90
2023-03-17T00:24:52.728Z,11.80
2023-03-17T00:27:23.309Z,11.80
2023-03-17T00:29:52.813Z,11.80
2023-03-17T00:32:23.114Z,11.80
2023-03-17T00:34:53.906Z,11.90
2023-03-17T00:37:23.201Z,11.90
2023-03-17T00:39:52.059Z,11.90
2023-03-17T00:42:22.407Z,11.90
2023-03-17T00:44:51.446Z,11.80
2023-03-17T00:47:20.312Z,11.80
2023-03-17T00:49:50.545Z,11.80
2023-03-17T00:52:19.481Z,11.80
2023-03-17T00:54:50.558Z,11.80
2023-03-17T00:57:19.614Z,11.80
2023-03-17T00:59:49.972Z,11.80
2023-03-17T01:02:19.002Z,11.80
2023-03-17T01:04:59.570Z,11.70
2023-03-17T01:07:32.994Z,11.70
2023-03-17T01:10:01.773Z,11.70
2023-03-17T01:12:30.642Z,11.70
2023-03-17T01:15:01.158Z,11.70
2023-03-17T01:17:30.094Z,11.70
2023-03-17T01:19:59.579Z,11.70
2023-03-17T01:22:28.465Z,11.70
2023-03-17T01:24:57.479Z,11.70
2023-03-17T01:27:26.591Z,11.70
2023-03-17T01:29:55.565Z,11.70
2023-03-17T01:32:26.133Z,11.70
2023-03-17T01:34:55.680Z,11.70
2023-03-17T01:37:25.881Z,11.60
2023-03-17T01:39:55.174Z,11.60
2023-03-17T01:42:24.638Z,11.60
2023-03-17T01:45:01.949Z,11.60
2023-03-17T01:47:32.318Z,11.60
2023-03-17T01:50:06.467Z,11.60
2023-03-17T01:52:38.049Z,11.60
2023-03-17T01:55:10.820Z,11.60
2023-03-17T01:57:42.632Z,11.50
2023-03-17T02:00:13.956Z,11.50
2023-03-17T02:02:46.168Z,11.50
2023-03-17T02:05:18.172Z,11.40
2023-03-17T02:07:47.409Z,11.40
2023-03-17T02:10:20.769Z,11.30
2023-03-17T02:12:53.556Z,11.30
2023-03-17T02:15:50.865Z,11.20
2023-03-17T02:18:23.831Z,11.20
2023-03-17T02:21:35.242Z,11.20
2023-03-17T02:24:09.755Z,11.20
2023-03-17T02:26:39.784Z,11.10
2023-03-17T02:29:08.823Z,11.10
2023-03-17T02:31:37.762Z,11.10
2023-03-17T02:34:06.750Z,11.20
2023-03-17T02:36:36.701Z,11.20
2023-03-17T02:39:07.599Z,11.20
2023-03-17T02:41:36.689Z,11.20
2023-03-17T02:44:05.819Z,11.20
2023-03-17T02:46:34.740Z,11.10
2023-03-17T02:49:04.094Z,11.20
2023-03-17T02:51:33.177Z,11.20
2023-03-17T02:54:02.017Z,11.20
2023-03-17T02:56:33.007Z,11.20
2023-03-17T02:59:01.994Z,11.30
2023-03-17T03:01:31.165Z,11.30
2023-03-17T03:04:00.277Z,11.30
2023-03-17T03:06:29.204Z,11.30
2023-03-17T03:08:58.101Z,11.30
2023-03-17T03:11:28.134Z,11.30
2023-03-17T03:13:58.489Z,11.40
2023-03-17T03:16:27.601Z,11.40
2023-03-17T03:18:56.724Z,11.40
2023-03-17T03:21:25.563Z,11.40
2023-03-17T03:23:54.535Z,11.40
2023-03-17T03:26:23.636Z,11.40
2023-03-17T03:28:52.670Z,11.40
2023-03-17T03:31:23.088Z,11.40
2023-03-17T03:33:52.086Z,11.40
2023-03-17T03:36:21.923Z,11.40
2023-03-17T03:38:51.140Z,11.40
2023-03-17T03:41:20.133Z,11.40
2023-03-17T03:43:49.219Z,11.40
2023-03-17T03:46:18.146Z,11.30
2023-03-17T03:48:48.687Z,11.40
2023-03-17T03:51:17.574Z,11.40
2023-03-17T03:53:48.423Z,11.40
2023-03-17T03:56:17.330Z,11.40
2023-03-17T03:58:46.324Z,11.40
2023-03-17T04:01:15.357Z,11.40
2023-03-17T04:03:47.188Z,11.40
2023-03-17T04:06:17.633Z,11.40
2023-03-17T04:08:46.777Z,11.40
2023-03-17T04:11:15.642Z,11.40
2023-03-17T04:13:44.509Z,11.40
2023-03-17T04:16:13.791Z,11.40
2023-03-17T04:18:42.799Z,11.40
2023-03-17T04:21:11.662Z,11.40
2023-03-17T04:23:42.079Z,11.40
2023-03-17T04:26:11.769Z,11.40
2023-03-17T04:28:40.614Z,11.40
2023-03-17T04:31:11.849Z,11.40
2023-03-17T04:33:41.002Z,11.40
2023-03-17T04:36:28.702Z,11.40
2023-03-17T04:38:59.068Z,11.40
2023-03-17T04:41:28.260Z,11.40
2023-03-17T04:43:57.163Z,11.30
2023-03-17T04:46:26.036Z,11.30
2023-03-17T04:48:55.212Z,11.30
2023-03-17T04:51:24.276Z,11.30
2023-03-17T04:53:53.205Z,11.20
2023-03-17T04:56:23.673Z,11.20
2023-03-17T04:58:52.629Z,11.20
2023-03-17T05:01:22.317Z,11.20
2023-03-17T05:03:51.810Z,11.20
2023-03-17T05:06:20.764Z,11.20
2023-03-17T05:08:49.599Z,11.20
2023-03-17T05:11:18.867Z,11.20
2023-03-17T05:13:49.257Z,11.10
2023-03-17T05:16:18.165Z,11.20
2023-03-17T05:18:47.280Z,11.20
2023-03-17T05:21:16.558Z,11.10
2023-03-17T05:23:45.900Z,11.10
2023-03-17T05:26:15.205Z,11.10
2023-03-17T05:28:44.181Z,11.10
2023-03-17T05:31:14.545Z,11.10
2023-03-17T05:33:43.737Z,11.10
2023-03-17T05:36:12.582Z,11.10
2023-03-17T05:38:42.076Z,11.10
2023-03-17T05:41:11.532Z,11.10
2023-03-17T05:43:41.467Z,11.10
2023-03-17T05:46:11.365Z,11.10
2023-03-17T05:48:42.133Z,11.10
2023-03-17T05:51:11.430Z,11.10
2023-03-17T05:53:40.649Z,11.10
2023-03-17T05:56:10.052Z,11.10
2023-03-17T05:58:39.066Z,11.00
2023-03-17T06:01:08.198Z,11.00
2023-03-17T06:03:38.940Z,11.00
2023-03-17T06:06:09.595Z,11.00
2023-03-17T06:08:38.710Z,11.00
2023-03-17T06:11:07.824Z,10.90
2023-03-17T06:13:36.792Z,10.90
2023-03-17T06:16:06.398Z,10.90
2023-03-17T06:18:35.948Z,10.90
2023-03-17T06:21:04.890Z,10.90
2023-03-17T06:23:35.169Z,11.00
2023-03-17T06:26:04.124Z,11.00
2023-03-17T06:28:33.358Z,11.00
2023-03-17T06:31:02.914Z,10.90
2023-03-17T06:33:32.875Z,10.90
2023-03-17T06:36:01.951Z,11.00
2023-03-17T06:38:30.860Z,11.00
2023-03-17T06:41:01.358Z,11.00
2023-03-17T06:43:30.408Z,11.00
2023-03-17T06:45:59.248Z,11.00
2023-03-17T06:48:28.882Z,11.00
2023-03-17T06:50:57.899Z,11.00
2023-03-17T06:53:26.800Z,11.00
2023-03-17T06:55:56.714Z,11.00
2023-03-17T06:58:27.434Z,11.00
2023-03-17T07:00:57.366Z,11.00
2023-03-17T07:03:26.787Z,11.00
2023-03-17T07:05:56.122Z,11.00
2023-03-17T07:08:25.065Z,11.00
2023-03-17T07:10:57.517Z,11.00
2023-03-17T07:13:28.239Z,11.00
2023-03-17T07:16:00.367Z,11.00
2023-03-17T07:18:32.337Z,11.00
2023-03-17T07:21:01.981Z,11.00
2023-03-17T07:23:31.625Z,11.00
2023-03-17T07:26:00.693Z,10.90
2023-03-17T07:28:31.389Z,10.90
2023-03-17T07:31:02.794Z,10.90
2023-03-17T07:33:33.891Z,10.90
2023-03-17T07:36:03.411Z,10.90
2023-03-17T07:38:32.509Z,10.90
2023-03-17T07:41:01.480Z,10.90
2023-03-17T07:43:32.131Z,10.90
2023-03-17T07:46:01.813Z,10.90
2023-03-17T07:48:32.212Z,10.90
2023-03-17T07:51:01.621Z,10.90
2023-03-17T07:53:30.967Z,10.90
2023-03-17T07:55:59.886Z,11.00
2023-03-17T07:58:28.897Z,11.00
2023-03-17T08:01:00.209Z,11.00
2023-03-17T08:03:30.657Z,11.00
2023-03-17T08:06:18.261Z,11.00
2023-03-17T08:08:47.312Z,11.00
2023-03-17T08:11:16.964Z,11.00
2023-03-17T08:13:46.027Z,11.00
2023-03-17T08:16:16.387Z,11.00
2023-03-17T08:18:45.322Z,10.90
2023-03-17T08:21:15.878Z,11.00
2023-03-17T08:23:45.192Z,11.00
2023-03-17T08:26:14.559Z,11.00
2023-03-17T08:28:43.841Z,11.00
2023-03-17T08:31:14.552Z,11.00
2023-03-17T08:33:47.673Z,11.00
2023-03-17T08:36:17.712Z,11.00
2023-03-17T08:38:48.299Z,11.00
2023-03-17T08:41:19.931Z,11.00
2023-03-17T08:43:49.392Z,11.00
2023-03-17T08:46:21.549Z,11.00
2023-03-17T08:48:54.250Z,11.10
2023-03-17T08:51:24.780Z,11.10
2023-03-17T08:53:54.204Z,11.10
2023-03-17T08:56:23.491Z,11.10
2023-03-17T08:58:53.072Z,11.20
2023-03-17T09:01:23.188Z,11.20
2023-03-17T09:03:56.314Z,11.20
2023-03-17T09:06:26.584Z,11.20
2023-03-17T09:08:56.424Z,11.20
2023-03-17T09:11:28.443Z,11.20
2023-03-17T09:13:57.931Z,11.30
2023-03-17T09:16:28.095Z,11.30
2023-03-17T09:18:58.484Z,11.30
2023-03-17T09:21:27.487Z,11.30
2023-03-17T09:23:56.314Z,11.40
2023-03-17T09:26:26.650Z,11.30
2023-03-17T09:29:15.489Z,11.30
2023-03-17T09:31:44.502Z,11.30
2023-03-17T09:34:14.932Z,11.30
2023-03-17T09:36:43.844Z,11.20
2023-03-17T09:39:13.004Z,11.20
2023-03-17T09:42:02.512Z,11.20
2023-03-17T09:44:49.198Z,11.20
2023-03-17T09:47:46.657Z,11.10
2023-03-17T09:50:20.622Z,11.10
2023-03-17T09:52:51.385Z,11.10
2023-03-17T09:55:30.878Z,11.10
2023-03-17T09:58:01.145Z,11.00
2023-03-17T10:00:31.423Z,11.00
2023-03-17T10:03:01.763Z,11.00
2023-03-17T10:05:36.291Z,11.00
2023-03-17T10:08:29.627Z,11.00
2023-03-17T10:11:09.637Z,11.00
2023-03-17T10:13:50.286Z,11.00
2023-03-17T10:16:22.543Z,11.00
2023-03-17T10:18:56.804Z,11.00
2023-03-17T10:21:33.334Z,11.00
2023-03-17T10:24:03.396Z,11.00
2023-03-17T10:26:39.920Z,11.00
2023-03-17T10:29:15.532Z,11.00
2023-03-17T10:31:45.192Z,11.00
2023-03-17T10:34:16.487Z,11.00
2023-03-17T10:36:48.810Z,11.00
2023-03-17T10:39:24.172Z,11.00
2023-03-17T10:41:58.876Z,11.00
2023-03-17T10:44:40.668Z,11.00
2023-03-17T10:47:24.431Z,11.00
2023-03-17T10:49:56.704Z,11.00
2023-03-17T10:52:30.322Z,11.00
2023-03-17T10:55:04.064Z,11.00
2023-03-17T10:57:33.876Z,11.00
2023-03-17T11:00:05.332Z,11.00
2023-03-17T11:02:44.579Z,11.00
2023-03-17T11:05:21.877Z,11.00
2023-03-17T11:07:58.816Z,11.00
2023-03-17T11:10:30.558Z,11.00
2023-03-17T11:13:03.180Z,11.00
2023-03-17T11:15:35.961Z,11.00
2023-03-17T11:18:07.908Z,10.90
2023-03-17T11:20:48.523Z,10.90
2023-03-17T11:23:34.328Z,10.90
2023-03-17T11:26:18.158Z,10.90
2023-03-17T11:28:52.068Z,10.90
2023-03-17T11:31:47.996Z,11.00
2023-03-17T11:34:27.968Z,11.00
2023-03-17T11:37:07.199Z,11.00
2023-03-17T11:39:43.815Z,11.00
2023-03-17T11:42:20.783Z,11.00
2023-03-17T11:45:22.163Z,11.00
2023-03-17T11:48:08.580Z,11.00
2023-03-17T11:50:42.917Z,10.90
2023-03-17T11:53:51.379Z,11.00
2023-03-17T11:56:25.412Z,10.90
2023-03-17T11:58:57.453Z,10.90
2023-03-17T12:01:30.655Z,10.90
2023-03-17T12:04:10.769Z,10.90
2023-03-17T12:06:46.783Z,10.90
2023-03-17T12:09:27.046Z,10.90
2023-03-17T12:11:58.510Z,11.10
2023-03-17T12:14:31.254Z,10.80
2023-03-17T12:17:07.968Z,10.70
2023-03-17T12:19:44.240Z,10.70
2023-03-17T12:22:23.424Z,10.70
2023-03-17T12:25:04.646Z,10.60
2023-03-17T12:28:01.043Z,10.60
2023-03-17T12:30:34.429Z,10.50
2023-03-17T12:33:13.365Z,10.50
2023-03-17T12:35:42.459Z,10.50
2023-03-17T12:38:14.981Z,10.40
2023-03-17T12:41:10.621Z,10.40
2023-03-17T12:43:49.846Z,10.40
2023-03-17T12:46:31.723Z,10.40
2023-03-17T12:49:20.394Z,10.30
2023-03-17T12:52:27.885Z,10.30
2023-03-17T12:54:59.601Z,10.30
2023-03-17T12:57:31.257Z,10.30
2023-03-17T13:00:07.791Z,10.30
2023-03-17T13:02:39.965Z,10.30
2023-03-17T13:05:12.002Z,10.30
2023-03-17T13:07:55.272Z,10.30
2023-03-17T13:10:44.932Z,10.30
2023-03-17T13:13:42.192Z,10.20
2023-03-17T13:16:32.385Z,10.20
2023-03-17T13:19:21.340Z,10.10
2023-03-17T13:22:19.560Z,10.10
2023-03-17T13:24:51.238Z,10.20
2023-03-17T13:27:46.245Z,10.10
2023-03-17T13:30:45.277Z,10.00
2023-03-17T13:33:24.914Z,10.00
2023-03-17T13:36:10.223Z,10.00
2023-03-17T13:39:27.257Z,10.00
2023-03-17T13:42:29.509Z,10.00
2023-03-17T13:45:25.313Z,9.90
2023-03-17T13:47:55.790Z,9.90
2023-03-17T13:50:33.135Z,9.90
2023-03-17T13:53:07.831Z,9.90
2023-03-17T13:55:39.857Z,9.90
2023-03-17T13:58:36.486Z,9.90
2023-03-17T14:01:10.490Z,9.90
2023-03-17T14:03:44.053Z,9.90
2023-03-17T14:06:16.250Z,9.90
2023-03-17T14:08:49.330Z,9.90
2023-03-17T14:11:25.721Z,9.90
2023-03-17T14:14:10.774Z,9.90
2023-03-17T14:16:46.823Z,9.90
2023-03-17T14:19:22.440Z,9.90
2023-03-17T14:21:52.998Z,9.90
2023-03-17T14:24:24.519Z,9.90
2023-03-17T14:26:55.106Z,9.90
2023-03-17T14:29:32.124Z,9.80
2023-03-17T14:32:06.348Z,9.80
2023-03-17T14:34:35.843Z,9.80
2023-03-17T14:37:07.931Z,9.80
2023-03-17T14:39:36.824Z,9.80
2023-03-17T14:42:07.356Z,9.80
2023-03-17T14:44:40.126Z,9.80
2023-03-17T14:47:20.053Z,9.80
2023-03-17T14:49:49.648Z,9.80
2023-03-17T14:52:22.648Z,9.80
2023-03-17T14:54:54.262Z,9.80
2023-03-17T14:57:27.204Z,9.80
2023-03-17T15:00:01.543Z,9.80
2023-03-17T15:02:34.604Z,9.80
2023-03-17T15:05:23.383Z,9.80
2023-03-17T15:07:53.989Z,9.70
2023-03-17T15:10:24.806Z,9.70
2023-03-17T15:13:03.493Z,9.70
2023-03-17T15:15:35.241Z,9.70
2023-03-17T15:18:09.026Z,9.70
2023-03-17T15:20:38.277Z,9.70
2023-03-17T15:23:18.489Z,9.60
2023-03-17T15:25:50.214Z,9.70
2023-03-17T15:28:21.035Z,9.60
2023-03-17T15:30:52.163Z,9.70
2023-03-17T15:33:23.797Z,9.70
2023-03-17T15:35:53.124Z,9.60
2023-03-17T15:38:23.874Z,9.60
2023-03-17T15:40:53.261Z,9.60
2023-03-17T15:43:22.973Z,9.60
2023-03-17T15:45:56.720Z,9.60
2023-03-17T15:48:29.993Z,9.60
2023-03-17T15:51:01.655Z,9.50
2023-03-17T15:53:32.527Z,9.50
2023-03-17T15:56:01.865Z,9.50
2023-03-17T15:58:30.745Z,9.50
2023-03-17T16:01:00.226Z,9.50
2023-03-17T16:03:32.560Z,9.50
2023-03-17T16:06:02.735Z,9.50
2023-03-17T16:08:34.064Z,9.50
2023-03-17T16:11:03.571Z,9.50
2023-03-17T16:13:32.907Z,9.40
2023-03-17T16:16:06.834Z,9.40
2023-03-17T16:18:54.486Z,9.40
2023-03-17T16:21:23.492Z,9.40
2023-03-17T16:23:54.001Z,9.40
2023-03-17T16:26:22.961Z,9.40
2023-03-17T16:28:51.917Z,9.40
2023-03-17T16:31:25.730Z,9.40
2023-03-17T16:33:55.740Z,9.30
2023-03-17T16:36:26.736Z,9.40
2023-03-17T16:38:57.417Z,9.30
2023-03-17T16:41:28.592Z,9.30
2023-03-17T16:44:01.356Z,9.30
2023-03-17T16:46:35.202Z,9.30
2023-03-17T16:49:06.012Z,9.30
2023-03-17T16:51:35.151Z,9.30
2023-03-17T16:54:05.521Z,9.30
2023-03-17T16:56:34.826Z,9.30
2023-03-17T16:59:03.899Z,9.30
2023-03-17T17:01:32.912Z,9.30
2023-03-17T17:04:01.973Z,9.30
2023-03-17T17:06:30.802Z,9.30
2023-03-17T17:08:59.704Z,9.30
2023-03-17T17:11:30.906Z,9.20
2023-03-17T17:14:00.009Z,9.20
2023-03-17T17:16:32.289Z,9.20
2023-03-17T17:19:01.951Z,9.20
2023-03-17T17:21:31.290Z,9.20
2023-03-17T17:24:00.660Z,9.20
2023-03-17T17:26:31.126Z,9.20
2023-03-17T17:29:00.620Z,9.30
2023-03-17T17:31:30.016Z,9.30
2023-03-17T17:33:59.231Z,9.20
2023-03-17T17:36:28.786Z,9.20
2023-03-17T17:38:57.706Z,9.20
2023-03-17T17:41:26.865Z,9.20
2023-03-17T17:43:57.214Z,9.20
2023-03-17T17:46:26.052Z,9.20
2023-03-17T17:48:55.047Z,9.20
2023-03-17T17:51:29.427Z,9.10
2023-03-17T17:53:58.704Z,9.10
2023-03-17T17:56:27.579Z,9.10
2023-03-17T17:58:57.960Z,9.10
2023-03-17T18:01:27.081Z,9.10
2023-03-17T18:03:56.051Z,9.10
2023-03-17T18:06:24.940Z,9.10
2023-03-17T18:08:55.387Z,9.10
2023-03-17T18:11:24.529Z,9.10
2023-03-17T18:13:53.521Z,9.10
2023-03-17T18:16:24.878Z,9.10
2023-03-17T18:18:53.954Z,9.00
2023-03-17T18:21:22.788Z,9.10
2023-03-17T18:23:55.285Z,9.00
2023-03-17T18:26:24.685Z,9.00
2023-03-17T18:28:54.242Z,9.00
2023-03-17T18:31:29.420Z,9.00
2023-03-17T18:34:01.481Z,9.00
2023-03-17T18:36:31.903Z,9.00
2023-03-17T18:39:01.059Z,9.00
2023-03-17T18:41:30.189Z,9.00
2023-03-17T18:43:59.115Z,9.00
2023-03-17T18:46:29.770Z,9.00
2023-03-17T18:48:58.849Z,9.10
2023-03-17T18:51:27.851Z,9.00
2023-03-17T18:53:56.754Z,9.00
2023-03-17T18:56:29.258Z,9.00
2023-03-17T18:58:59.138Z,9.00
2023-03-17T19:01:29.969Z,9.00
2023-03-17T19:03:58.933Z,9.00
2023-03-17T19:06:27.934Z,9.00
2023-03-17T19:08:57.555Z,9.00
2023-03-17T19:11:26.484Z,9.00
2023-03-17T19:13:55.626Z,9.00
2023-03-17T19:16:29.036Z,9.20
2023-03-17T19:19:00.432Z,9.00
2023-03-17T19:21:29.770Z,9.00
2023-03-17T19:24:01.216Z,9.00
2023-03-17T19:26:30.606Z,9.00
2023-03-17T19:29:00.257Z,9.00
2023-03-17T19:31:29.508Z,9.00
2023-03-17T19:34:00.565Z,9.00
2023-03-17T19:36:36.060Z,9.00
2023-03-17T19:39:24.395Z,9.00
2023-03-17T19:41:55.343Z,9.10
2023-03-17T19:44:24.978Z,9.00
2023-03-17T19:46:56.821Z,9.00
2023-03-17T19:49:28.086Z,9.00
2023-03-17T19:51:57.177Z,9.10
2023-03-17T19:54:26.012Z,9.00
2023-03-17T19:56:55.249Z,9.00
2023-03-17T19:59:24.104Z,9.00
2023-03-17T20:01:53.054Z,9.00
2023-03-17T20:04:23.364Z,9.00
2023-03-17T20:06:55.898Z,9.00
2023-03-17T20:09:26.451Z,9.00
2023-03-17T20:11:56.616Z,9.00
2023-03-17T20:14:29.310Z,9.00
2023-03-17T20:17:17.512Z,9.00
2023-03-17T20:19:49.763Z,9.00
2023-03-17T20:22:20.288Z,9.00
2023-03-17T20:24:49.190Z,9.00
2023-03-17T20:27:20.678Z,9.00
2023-03-17T20:29:50.526Z,9.00
2023-03-17T20:32:20.526Z,9.00
2023-03-17T20:34:49.534Z,9.00
2023-03-17T20:37:20.082Z,9.00
2023-03-17T20:39:49.200Z,9.00
2023-03-17T20:42:20.502Z,9.00
2023-03-17T20:44:53.602Z,9.00
2023-03-17T20:47:22.708Z,9.00
2023-03-17T20:49:53.274Z,9.00
2023-03-17T20:52:23.670Z,9.00
2023-03-17T20:54:52.663Z,9.00
2023-03-17T20:57:21.581Z,9.00
2023-03-17T20:59:51.546Z,9.00
2023-03-17T21:02:21.013Z,9.00
2023-03-17T21:04:49.846Z,9.00
2023-03-17T21:07:20.460Z,9.00
2023-03-17T21:09:51.755Z,9.00
2023-03-17T21:12:21.802Z,9.00
2023-03-17T21:14:52.276Z,9.00
2023-03-17T21:17:23.008Z,9.00
2023-03-17T21:19:52.054Z,9.00
2023-03-17T21:22:20.934Z,9.00
2023-03-17T21:24:51.605Z,9.00
2023-03-17T21:27:20.737Z,9.00
2023-03-17T21:29:49.831Z,9.00
2023-03-17T21:32:19.165Z,9.00
2023-03-17T21:34:48.332Z,9.00
2023-03-17T21:37:18.480Z,9.00
2023-03-17T21:39:47.730Z,8.90
2023-03-17T21:42:22.135Z,8.90
2023-03-17T21:44:52.412Z,8.90
2023-03-17T21:47:21.811Z,8.90
2023-03-17T21:49:52.212Z,8.90
2023-03-17T21:52:21.914Z,8.80
2023-03-17T21:54:51.188Z,8.80
2023-03-17T21:57:21.837Z,8.80
2023-03-17T21:59:50.832Z,8.80
2023-03-17T22:02:19.885Z,8.80
2023-03-17T22:04:49.083Z,8.80
2023-03-17T22:07:18.780Z,8.80
2023-03-17T22:09:47.841Z,9.10
2023-03-17T22:12:16.955Z,8.80
2023-03-17T22:14:47.299Z,8.80
2023-03-17T22:17:16.945Z,8.80
2023-03-17T22:19:45.815Z,8.80
2023-03-17T22:22:14.718Z,8.80
2023-03-17T22:24:43.763Z,8.80
2023-03-17T22:27:12.844Z,8.80
2023-03-17T22:29:41.846Z,8.90
2023-03-17T22:32:12.657Z,8.90
2023-03-17T22:34:41.574Z,8.90
2023-03-17T22:37:11.805Z,8.90
2023-03-17T22:39:40.634Z,8.90
2023-03-17T22:42:09.700Z,8.90
2023-03-17T22:44:38.556Z,8.90
2023-03-17T22:47:08.239Z,8.90
2023-03-17T22:49:38.752Z,8.90
2023-03-17T22:52:08.962Z,8.90
2023-03-17T22:54:37.855Z,8.90
2023-03-17T22:57:06.844Z,8.90
2023-03-17T22:59:35.900Z,8.90
2023-03-17T23:02:05.598Z,8.90
2023-03-17T23:04:36.110Z,8.90
2023-03-17T23:07:06.832Z,8.90
2023-03-17T23:09:35.843Z,8.80
2023-03-17T23:12:05.150Z,8.90
2023-03-17T23:14:52.643Z,8.90
2023-03-17T23:17:21.998Z,8.80
2023-03-17T23:19:50.996Z,8.80
2023-03-17T23:22:21.576Z,8.80
2023-03-17T23:24:50.585Z,8.80
2023-03-17T23:27:19.613Z,8.80
2023-03-17T23:29:48.468Z,8.80
2023-03-17T23:32:17.634Z,8.90
2023-03-17T23:34:47.045Z,8.80
2023-03-17T23:37:15.903Z,8.90
2023-03-17T23:39:46.220Z,8.80
2023-03-17T23:42:15.129Z,8.90
2023-03-17T23:44:45.250Z,8.90
2023-03-17T23:47:15.103Z,8.80
2023-03-17T23:49:44.311Z,8.90
2023-03-17T23:52:13.525Z,8.80
2023-03-17T23:54:42.416Z,8.80
2023-03-17T23:57:13.276Z,8.80
2023-03-17T23:59:42.148Z,8.80
